Delta Ios — SVAK9 — position and weather

sailwx.info

Track history (hours):
 
Tides and Currents Weather Stations Pressure Air Temp Water Temp Dewpoint Dewpoint Depression Visibility Wind Speed Wind Dir Waves Ship Positions

Delta Ios

Last reported at 2016-Apr-13 23:33 UTC. Time now 2016-May-01 00:30 UTC.
Position N 15°03' W 018°37'.
Warning: this ship's position is 17 days out of date.

Length 276 m; draft 9.3 m.

Type: Ship. MMSI: 240821000.

Date/timePositionNaut miles runAvg speedWind from/ knotsBaromVisibWave heightAir tempDewpointWater temp
2016-Apr-13 23:33N 15°03' W 018°37'10 7.2
2016-Apr-13 22:10N 15°13' W 018°37'7 7.4
2016-Apr-13 21:16N 15°20' W 018°37'35 7.1
2016-Apr-13 16:19N 15°55' W 018°37'6 7.4
2016-Apr-13 15:31N 16°01' W 018°37'7 7.3
2016-Apr-13 14:32N 16°08' W 018°37'8 7.4
2016-Apr-13 13:24N 16°16' W 018°37'6 7.2
2016-Apr-13 12:33N 16°23' W 018°37'9 9.1
2016-Apr-13 11:33N 16°32' W 018°37'3112.8
2016-Apr-13 09:07N 17°03' W 018°37'5 7.2
2016-Apr-13 08:25N 17°08' W 018°37'6 7.1
2016-Apr-13 07:33N 17°14' W 018°37'7 7.1
2016-Apr-13 06:32N 17°21' W 018°37'30 7.0
2016-Apr-13 02:11N 17°52' W 018°37'  
2016-Apr-09 09:28N 27°40' W 014°04'9 9.5
2016-Apr-09 08:30N 27°46' W 013°56'20 9.7
2016-Apr-09 06:25N 28°01' W 013°40'910.1
2016-Apr-09 05:33N 28°08' W 013°35'10 9.7
2016-Apr-09 04:32N 28°17' W 013°30'23 9.5
2016-Apr-09 02:08N 28°36' W 013°16'  
2016-Apr-06 06:33N 35°59' W 005°30'7 7.3
2016-Apr-06 05:32N 36°05' W 005°24'0 0.1
2016-Apr-06 04:32N 36°05' W 005°24'0 0.1
2016-Apr-06 03:32N 36°05' W 005°24'0 0.0
2016-Apr-06 02:32N 36°05' W 005°24'0 0.0
2016-Apr-06 01:32N 36°05' W 005°24'0 0.0
2016-Apr-06 00:32N 36°05' W 005°24'0 0.1
2016-Apr-05 23:32N 36°05' W 005°24'0 0.0
2016-Apr-05 22:32N 36°05' W 005°24'0 0.1
2016-Apr-05 21:32N 36°05' W 005°24'0 0.0
2016-Apr-05 20:32N 36°05' W 005°24'0 0.1
2016-Apr-05 19:32N 36°05' W 005°24'0 0.1
2016-Apr-05 18:32N 36°05' W 005°24'0 0.0
2016-Apr-05 17:32N 36°05' W 005°24'0 0.1
2016-Apr-05 16:23N 36°05' W 005°24'0 0.0
2016-Apr-05 15:32N 36°05' W 005°24'0 0.0
2016-Apr-05 14:32N 36°05' W 005°24'0 0.0
2016-Apr-05 13:32N 36°05' W 005°24'0 0.0
2016-Apr-05 12:32N 36°05' W 005°24'0 0.0
2016-Apr-05 11:29N 36°05' W 005°24'0 0.2
2016-Apr-05 10:32N 36°05' W 005°24'0 0.0
2016-Apr-05 09:32N 36°05' W 005°24'0 0.0
2016-Apr-05 08:32N 36°05' W 005°24'0 0.1
2016-Apr-05 07:32N 36°05' W 005°24'0 0.5
2016-Apr-05 06:33N 36°05' W 005°24'4 4.5
2016-Apr-05 05:33N 36°04' W 005°18'5 5.3
2016-Apr-05 04:33N 36°03' W 005°12'205 8.1
2016-Apr-04 03:14N 37°09' W 001°10'8 9.2
2016-Apr-04 02:23N 37°14' W 001°02'8 9.1
2016-Apr-04 01:33N 37°19' W 000°55'8 8.2
2016-Apr-04 00:33N 37°24' W 000°47'  
Track history (hours):
 
Tides and Currents Weather Stations Pressure Air Temp Water Temp Dewpoint Dewpoint Depression Visibility Wind Speed Wind Dir Waves Ship Positions

Delta Ios

Last reported at 2016-Apr-13 23:33 UTC. Time now 2016-May-01 00:30 UTC.
Position N 15°03' W 018°37'.
Warning: this ship's position is 17 days out of date.

Length 276 m; draft 9.3 m.

Type: Ship. MMSI: 240821000.

Date/timePositionNaut miles runAvg speedWind from/ knotsBaromVisibWave heightAir tempDewpointWater temp
2016-Apr-13 23:33N 15°03' W 018°37'10 7.2
2016-Apr-13 22:10N 15°13' W 018°37'7 7.4
2016-Apr-13 21:16N 15°20' W 018°37'35 7.1
2016-Apr-13 16:19N 15°55' W 018°37'6 7.4
2016-Apr-13 15:31N 16°01' W 018°37'7 7.3
2016-Apr-13 14:32N 16°08' W 018°37'8 7.4
2016-Apr-13 13:24N 16°16' W 018°37'6 7.2
2016-Apr-13 12:33N 16°23' W 018°37'9 9.1
2016-Apr-13 11:33N 16°32' W 018°37'3112.8
2016-Apr-13 09:07N 17°03' W 018°37'5 7.2
2016-Apr-13 08:25N 17°08' W 018°37'6 7.1
2016-Apr-13 07:33N 17°14' W 018°37'7 7.1
2016-Apr-13 06:32N 17°21' W 018°37'30 7.0
2016-Apr-13 02:11N 17°52' W 018°37'  
2016-Apr-09 09:28N 27°40' W 014°04'9 9.5
2016-Apr-09 08:30N 27°46' W 013°56'20 9.7
2016-Apr-09 06:25N 28°01' W 013°40'910.1
2016-Apr-09 05:33N 28°08' W 013°35'10 9.7
2016-Apr-09 04:32N 28°17' W 013°30'23 9.5
2016-Apr-09 02:08N 28°36' W 013°16'  
2016-Apr-06 06:33N 35°59' W 005°30'7 7.3
2016-Apr-06 05:32N 36°05' W 005°24'0 0.1
2016-Apr-06 04:32N 36°05' W 005°24'0 0.1
2016-Apr-06 03:32N 36°05' W 005°24'0 0.0
2016-Apr-06 02:32N 36°05' W 005°24'0 0.0
2016-Apr-06 01:32N 36°05' W 005°24'0 0.0
2016-Apr-06 00:32N 36°05' W 005°24'0 0.1
2016-Apr-05 23:32N 36°05' W 005°24'0 0.0
2016-Apr-05 22:32N 36°05' W 005°24'0 0.1
2016-Apr-05 21:32N 36°05' W 005°24'0 0.0
2016-Apr-05 20:32N 36°05' W 005°24'0 0.1
2016-Apr-05 19:32N 36°05' W 005°24'0 0.1
2016-Apr-05 18:32N 36°05' W 005°24'0 0.0
2016-Apr-05 17:32N 36°05' W 005°24'0 0.1
2016-Apr-05 16:23N 36°05' W 005°24'0 0.0
2016-Apr-05 15:32N 36°05' W 005°24'0 0.0
2016-Apr-05 14:32N 36°05' W 005°24'0 0.0
2016-Apr-05 13:32N 36°05' W 005°24'0 0.0
2016-Apr-05 12:32N 36°05' W 005°24'0 0.0
2016-Apr-05 11:29N 36°05' W 005°24'0 0.2
2016-Apr-05 10:32N 36°05' W 005°24'0 0.0
2016-Apr-05 09:32N 36°05' W 005°24'0 0.0
2016-Apr-05 08:32N 36°05' W 005°24'0 0.1
2016-Apr-05 07:32N 36°05' W 005°24'0 0.5
2016-Apr-05 06:33N 36°05' W 005°24'4 4.5
2016-Apr-05 05:33N 36°04' W 005°18'5 5.3
2016-Apr-05 04:33N 36°03' W 005°12'205 8.1
2016-Apr-04 03:14N 37°09' W 001°10'8 9.2
2016-Apr-04 02:23N 37°14' W 001°02'8 9.1
2016-Apr-04 01:33N 37°19' W 000°55'8 8.2
2016-Apr-04 00:33N 37°24' W 000°47'  

Dump ship's entire track history